createdAt,value
2017-07-07T00:00:15.087Z,87.64
2017-07-07T00:01:15.152Z,87.45
2017-07-07T00:02:15.154Z,87.74
2017-07-07T00:03:15.169Z,87.93
2017-07-07T00:04:15.217Z,87.74
2017-07-07T00:05:15.242Z,88.12
2017-07-07T00:06:15.287Z,87.74
2017-07-07T00:07:15.323Z,87.55
2017-07-07T00:08:15.341Z,87.55
2017-07-07T00:09:15.392Z,88.31
2017-07-07T00:10:15.430Z,88.22
2017-07-07T00:11:15.466Z,87.16
2017-07-07T00:12:15.493Z,88.02
2017-07-07T00:13:15.530Z,87.93
2017-07-07T00:14:15.554Z,88.41
2017-07-07T00:15:15.606Z,87.74
2017-07-07T00:16:15.637Z,87.84
2017-07-07T00:17:15.651Z,87.74
2017-07-07T00:18:15.706Z,88.51
2017-07-07T00:19:15.741Z,88.31
2017-07-07T00:20:15.758Z,87.74
2017-07-07T00:21:15.794Z,87.74
2017-07-07T00:22:15.841Z,88.02
2017-07-07T00:23:15.868Z,87.93
2017-07-07T00:24:15.912Z,88.12
2017-07-07T00:25:15.947Z,87.74
2017-07-07T00:26:15.980Z,88.79
2017-07-07T00:27:16.019Z,88.79
2017-07-07T00:28:16.048Z,88.7
2017-07-07T00:29:16.079Z,88.89
2017-07-07T00:30:16.117Z,88.89
2017-07-07T00:31:16.155Z,88.51
2017-07-07T00:32:16.181Z,89.08
2017-07-07T00:33:16.222Z,89.18
2017-07-07T00:34:16.236Z,88.89
2017-07-07T00:35:16.297Z,88.41
2017-07-07T00:36:16.307Z,88.17
2017-07-07T00:37:16.356Z,88.12
2017-07-07T00:38:16.391Z,88.84
2017-07-07T00:39:16.427Z,89.47
2017-07-07T00:40:16.455Z,89.27
2017-07-07T00:41:16.503Z,89.08
2017-07-07T00:42:16.510Z,89.04
2017-07-07T00:43:16.561Z,88.79
2017-07-07T00:44:16.604Z,88.46
2017-07-07T00:45:16.639Z,88.89
2017-07-07T00:46:16.671Z,89.56
2017-07-07T00:47:16.693Z,89.47
2017-07-07T00:48:16.737Z,89.94
2017-07-07T00:49:16.763Z,90.14
2017-07-07T00:50:16.806Z,89.75
2017-07-07T00:51:16.847Z,89.75
2017-07-07T00:52:16.863Z,89.8
2017-07-07T00:53:16.912Z,90
2017-07-07T00:54:16.944Z,89.9
2017-07-07T00:55:16.982Z,90
2017-07-07T00:56:17.011Z,90.19
2017-07-07T00:57:17.053Z,89.8
2017-07-07T00:58:17.085Z,89.9
2017-07-07T00:59:17.115Z,90.19
2017-07-07T01:00:17.155Z,90.09
2017-07-07T01:01:17.186Z,90.04
2017-07-07T01:02:17.240Z,90
2017-07-07T01:03:17.256Z,89.8
2017-07-07T01:04:17.271Z,90.09
2017-07-07T01:05:17.321Z,90.14
2017-07-07T01:06:17.366Z,89.71
2017-07-07T01:07:17.374Z,90.28
2017-07-07T01:08:17.438Z,89.61
2017-07-07T01:09:17.461Z,89.61
2017-07-07T01:10:17.494Z,89.75
2017-07-07T01:11:17.531Z,89.51
2017-07-07T01:12:17.565Z,89.27
2017-07-07T01:13:17.593Z,89.71
2017-07-07T01:14:17.629Z,89.85
2017-07-07T01:15:17.671Z,89.9
2017-07-07T01:16:17.696Z,89.75
2017-07-07T01:17:17.738Z,89.27
2017-07-07T01:18:17.771Z,89.08
2017-07-07T01:19:17.810Z,89.27
2017-07-07T01:20:17.838Z,88.79
2017-07-07T01:21:17.870Z,88.75
2017-07-07T01:22:17.897Z,89.27
2017-07-07T01:23:17.937Z,89.27
2017-07-07T01:24:17.956Z,89.08
2017-07-07T01:25:18.007Z,89.18
2017-07-07T01:26:18.039Z,89.08
2017-07-07T01:27:18.072Z,89.08
2017-07-07T01:28:18.105Z,89.37
2017-07-07T01:29:18.144Z,89.47
2017-07-07T01:30:18.170Z,88.89
2017-07-07T01:31:18.211Z,88.7
2017-07-07T01:32:18.248Z,88.89
2017-07-07T01:33:18.272Z,88.79
2017-07-07T01:34:18.319Z,88.79
2017-07-07T01:35:18.349Z,88.79
2017-07-07T01:36:18.379Z,88.75
2017-07-07T01:37:18.410Z,88.31
2017-07-07T01:38:18.451Z,88.17
2017-07-07T01:39:18.469Z,88.79
2017-07-07T01:40:18.517Z,88.22
2017-07-07T01:41:18.555Z,87.7
2017-07-07T01:42:18.574Z,88.75
2017-07-07T01:43:18.619Z,88.79
2017-07-07T01:44:18.660Z,89.32
2017-07-07T01:45:18.690Z,89.04
2017-07-07T01:46:18.721Z,88.46
2017-07-07T01:47:18.764Z,89.23
2017-07-07T01:48:18.797Z,89.32
2017-07-07T01:49:18.823Z,89.42
2017-07-07T01:50:18.864Z,90
2017-07-07T01:51:18.901Z,89.9
2017-07-07T01:52:18.931Z,89.61
2017-07-07T01:53:18.963Z,89.51
2017-07-07T01:54:18.988Z,89.23
2017-07-07T01:55:19.053Z,89.9
2017-07-07T01:56:19.072Z,90
2017-07-07T01:57:19.105Z,89.71
2017-07-07T01:58:19.135Z,89.71
2017-07-07T01:59:19.174Z,89.42
2017-07-07T02:00:19.203Z,89.71
2017-07-07T02:01:19.226Z,90.09
2017-07-07T02:02:19.278Z,89.9
2017-07-07T02:03:19.305Z,89.61
2017-07-07T02:04:19.338Z,90.28
2017-07-07T02:05:19.373Z,89.23
2017-07-07T02:06:19.407Z,90
2017-07-07T02:07:19.444Z,90
2017-07-07T02:08:19.482Z,90.09
2017-07-07T02:09:19.513Z,90.19
2017-07-07T02:10:19.554Z,90.47
2017-07-07T02:11:19.586Z,90.28
2017-07-07T02:12:19.617Z,89.9
2017-07-07T02:13:19.658Z,90.38
2017-07-07T02:14:19.683Z,90.09
2017-07-07T02:15:19.719Z,89.8
2017-07-07T02:16:19.751Z,89.71
2017-07-07T02:17:19.775Z,90.47
2017-07-07T02:18:19.826Z,90.19
2017-07-07T02:19:19.852Z,90.19
2017-07-07T02:20:19.884Z,90.28
2017-07-07T02:21:19.983Z,89.9
2017-07-07T02:22:19.955Z,90.57
2017-07-07T02:23:19.972Z,90.19
2017-07-07T02:24:20.027Z,89.61
2017-07-07T02:25:20.069Z,90
2017-07-07T02:26:20.096Z,89.61
2017-07-07T02:27:20.127Z,90
2017-07-07T02:28:20.161Z,90
2017-07-07T02:29:20.181Z,90.09
2017-07-07T02:30:20.213Z,89.61
2017-07-07T02:31:20.263Z,89.9
2017-07-07T02:32:20.276Z,89.42
2017-07-07T02:33:20.308Z,89.32
2017-07-07T02:34:20.362Z,89.23
2017-07-07T02:35:20.396Z,89.42
2017-07-07T02:36:20.440Z,89.65
2017-07-07T02:37:20.478Z,89.08
2017-07-07T02:38:20.502Z,88.89
2017-07-07T02:39:20.533Z,89.18
2017-07-07T02:40:20.579Z,88.89
2017-07-07T02:41:20.585Z,88.31
2017-07-07T02:42:20.643Z,88.51
2017-07-07T02:43:20.670Z,88.51
2017-07-07T02:44:20.694Z,88.51
2017-07-07T02:45:20.743Z,88.22
2017-07-07T02:46:20.775Z,88.31
2017-07-07T02:47:20.799Z,88.22
2017-07-07T02:48:20.830Z,88.12
2017-07-07T02:49:20.878Z,88.41
2017-07-07T02:50:20.916Z,88.6
2017-07-07T02:51:20.938Z,88.12
2017-07-07T02:52:20.979Z,88.22
2017-07-07T02:53:21.019Z,88.22
2017-07-07T02:54:21.043Z,88.02
2017-07-07T02:55:21.090Z,88.22
2017-07-07T02:56:21.113Z,88.79
2017-07-07T02:57:21.132Z,88.31
2017-07-07T02:58:21.183Z,88.6
2017-07-07T02:59:21.224Z,88.89
2017-07-07T03:00:21.248Z,88.79
2017-07-07T03:01:21.308Z,88.7
2017-07-07T03:02:21.297Z,88.79
2017-07-07T03:03:21.350Z,88.89
2017-07-07T03:04:21.385Z,88.27
2017-07-07T03:05:21.425Z,88.17
2017-07-07T03:06:21.452Z,88.79
2017-07-07T03:07:21.491Z,88.89
2017-07-07T03:08:21.525Z,88.22
2017-07-07T03:09:21.535Z,88.6
2017-07-07T03:10:21.592Z,88.51
2017-07-07T03:11:21.616Z,88.7
2017-07-07T03:12:21.688Z,88.79
2017-07-07T03:13:21.689Z,88.79
2017-07-07T03:14:21.712Z,89.08
2017-07-07T03:15:21.760Z,89.27
2017-07-07T03:16:21.796Z,89.18
2017-07-07T03:17:21.815Z,89.04
2017-07-07T03:18:21.864Z,89.27
2017-07-07T03:19:21.893Z,88.65
2017-07-07T03:20:21.931Z,89.13
2017-07-07T03:21:21.967Z,89.08
2017-07-07T03:22:21.997Z,89.42
2017-07-07T03:23:22.032Z,89.32
2017-07-07T03:24:22.065Z,89.42
2017-07-07T03:25:22.105Z,89.04
2017-07-07T03:26:22.133Z,89.51
2017-07-07T03:27:22.173Z,90.09
2017-07-07T03:28:22.203Z,89.9
2017-07-07T03:29:22.210Z,89.51
2017-07-07T03:30:22.251Z,89.9
2017-07-07T03:31:22.303Z,89.94
2017-07-07T03:32:22.338Z,89.85
2017-07-07T03:33:22.372Z,89.94
2017-07-07T03:34:22.407Z,90.14
2017-07-07T03:35:22.439Z,89.85
2017-07-07T03:36:22.473Z,89.85
2017-07-07T03:37:22.507Z,89.08
2017-07-07T03:38:22.543Z,89.37
2017-07-07T03:39:22.580Z,89.37
2017-07-07T03:40:22.610Z,89.08
2017-07-07T03:41:22.637Z,89.27
2017-07-07T03:42:22.682Z,89.47
2017-07-07T03:43:22.696Z,89.08
2017-07-07T03:44:22.752Z,88.79
2017-07-07T03:45:22.786Z,88.7
2017-07-07T03:46:22.813Z,88.7
2017-07-07T03:47:22.853Z,88.51
2017-07-07T03:48:22.883Z,88.7
2017-07-07T03:49:22.917Z,88.41
2017-07-07T03:50:22.952Z,88.79
2017-07-07T03:51:22.988Z,88.7
2017-07-07T03:52:23.002Z,88.7
2017-07-07T03:53:23.059Z,89.08
2017-07-07T03:54:23.088Z,88.79
2017-07-07T03:55:23.117Z,88.89
2017-07-07T03:56:23.160Z,88.79
2017-07-07T03:57:23.188Z,88.79
2017-07-07T03:58:23.212Z,88.79
2017-07-07T03:59:23.261Z,88.22
2017-07-07T04:00:23.306Z,87.78
2017-07-07T04:01:23.314Z,87.74
2017-07-07T04:02:23.362Z,88.07
2017-07-07T04:03:23.392Z,87.78
2017-07-07T04:04:23.413Z,87.98
2017-07-07T04:05:23.444Z,87.98
2017-07-07T04:06:23.506Z,88.17
2017-07-07T04:07:23.542Z,88.17
2017-07-07T04:08:23.571Z,87.68
2017-07-07T04:09:23.605Z,87.59
2017-07-07T04:10:23.638Z,87.68
2017-07-07T04:11:23.676Z,87.78
2017-07-07T04:12:23.701Z,87.88
2017-07-07T04:13:23.707Z,87.78
2017-07-07T04:14:23.769Z,87.59
2017-07-07T04:15:23.814Z,87.88
2017-07-07T04:16:23.847Z,87.4
2017-07-07T04:17:23.879Z,87.3
2017-07-07T04:18:23.933Z,87.3
2017-07-07T04:19:23.959Z,87.59
2017-07-07T04:20:23.981Z,87.44
2017-07-07T04:21:24.016Z,87.44
2017-07-07T04:22:24.047Z,87.63
2017-07-07T04:23:24.062Z,87.63
2017-07-07T04:24:24.123Z,87.44
2017-07-07T04:25:24.150Z,87.92
2017-07-07T04:26:24.197Z,88.02
2017-07-07T04:27:24.207Z,87.78
2017-07-07T04:28:24.256Z,87.73
2017-07-07T04:29:24.285Z,87.88
2017-07-07T04:30:24.329Z,87.59
2017-07-07T04:31:24.364Z,87.88
2017-07-07T04:32:24.392Z,87.63
2017-07-07T04:33:24.436Z,87.63
2017-07-07T04:34:24.464Z,87.73
2017-07-07T04:35:24.506Z,87.82
2017-07-07T04:36:24.532Z,87.82
2017-07-07T04:37:24.566Z,87.73
2017-07-07T04:38:24.583Z,87.73
2017-07-07T04:39:24.639Z,88.02
2017-07-07T04:40:24.667Z,87.73
2017-07-07T04:41:24.705Z,87.68
2017-07-07T04:42:24.720Z,87.82
2017-07-07T04:43:24.762Z,87.92
2017-07-07T04:44:24.808Z,88.31
2017-07-07T04:45:24.836Z,87.82
2017-07-07T04:46:24.861Z,87.92
2017-07-07T04:47:24.908Z,87.98
2017-07-07T04:48:24.939Z,87.78
2017-07-07T04:49:24.981Z,87.88
2017-07-07T04:50:25.020Z,87.78
2017-07-07T04:51:25.030Z,88.26
2017-07-07T04:52:25.084Z,88.55
2017-07-07T04:53:25.124Z,88.45
2017-07-07T04:54:25.152Z,88.45
2017-07-07T04:55:25.189Z,88.35
2017-07-07T04:56:25.226Z,89.22
2017-07-07T04:57:25.256Z,89.03
2017-07-07T04:58:25.275Z,88.74
2017-07-07T04:59:25.339Z,88.84
2017-07-07T05:00:25.361Z,88.74
2017-07-07T05:01:25.401Z,89.61
2017-07-07T05:02:25.437Z,89.89
2017-07-07T05:03:25.468Z,89.99
2017-07-07T05:04:25.505Z,89.79
2017-07-07T05:05:25.537Z,90.08
2017-07-07T05:06:25.565Z,89.99
2017-07-07T05:07:25.607Z,89.51
2017-07-07T05:08:25.637Z,89.79
2017-07-07T05:09:25.671Z,90.08
2017-07-07T05:10:25.704Z,89.7
2017-07-07T05:11:25.740Z,89.89
2017-07-07T05:12:25.778Z,90.13
2017-07-07T05:13:25.804Z,91.05
2017-07-07T05:14:25.848Z,91.42
2017-07-07T05:15:25.881Z,91.52
2017-07-07T05:16:25.898Z,91.28
2017-07-07T05:17:25.930Z,90.52
2017-07-07T05:18:25.985Z,90.32
2017-07-07T05:19:26.003Z,90.18
2017-07-07T05:20:26.030Z,90.03
2017-07-07T05:21:26.088Z,90.08
2017-07-07T05:22:26.123Z,90.18
2017-07-07T05:23:26.145Z,89.84
2017-07-07T05:24:26.173Z,90.28
2017-07-07T05:25:26.236Z,90.7
2017-07-07T05:26:26.250Z,91.33
2017-07-07T05:27:26.294Z,91.14
2017-07-07T05:28:26.334Z,91.14
2017-07-07T05:29:26.365Z,91.72
2017-07-07T05:30:26.403Z,91.42
2017-07-07T05:31:26.434Z,91.33
2017-07-07T05:32:26.473Z,91.72
2017-07-07T05:33:26.502Z,91.42
2017-07-07T05:34:26.545Z,91.81
2017-07-07T05:35:26.571Z,91.72
2017-07-07T05:36:26.611Z,91.91
2017-07-07T05:37:26.650Z,91.05
2017-07-07T05:38:26.679Z,90.95
2017-07-07T05:39:26.702Z,90.56
2017-07-07T05:40:26.747Z,90.28
2017-07-07T05:41:26.772Z,90.99
2017-07-07T05:42:26.814Z,90.61
2017-07-07T05:43:26.847Z,90.8
2017-07-07T05:44:26.888Z,91.28
2017-07-07T05:45:26.911Z,91.86
2017-07-07T05:46:26.938Z,91.66
2017-07-07T05:47:26.987Z,91.76
2017-07-07T05:48:27.031Z,92.43
2017-07-07T05:49:27.069Z,92.24
2017-07-07T05:50:27.093Z,91.96
2017-07-07T05:51:27.140Z,91.66
2017-07-07T05:52:27.169Z,91.47
2017-07-07T05:53:27.181Z,91.28
2017-07-07T05:54:27.242Z,90.99
2017-07-07T05:55:27.269Z,91.28
2017-07-07T05:56:27.304Z,91.19
2017-07-07T05:57:27.352Z,91.57
2017-07-07T05:58:27.357Z,91.38
2017-07-07T05:59:27.409Z,92
2017-07-07T06:00:27.445Z,92.53
2017-07-07T06:01:27.479Z,93.2
2017-07-07T06:02:27.495Z,93.2
2017-07-07T06:03:27.548Z,93.49
2017-07-07T06:04:27.585Z,93.87
2017-07-07T06:05:27.626Z,93.97
2017-07-07T06:06:27.651Z,93.2
2017-07-07T06:07:27.690Z,93.39
2017-07-07T06:08:27.708Z,92.91
2017-07-07T06:09:27.749Z,93.2
2017-07-07T06:10:27.773Z,93.2
2017-07-07T06:11:27.832Z,93.2
2017-07-07T06:12:27.847Z,92.91
2017-07-07T06:13:27.895Z,93.3
2017-07-07T06:14:27.944Z,93.97
2017-07-07T06:15:27.967Z,94.07
2017-07-07T06:16:27.999Z,95.31
2017-07-07T06:17:28.046Z,95.7
2017-07-07T06:18:28.071Z,95.41
2017-07-07T06:19:28.109Z,95.03
2017-07-07T06:20:28.148Z,95.5
2017-07-07T06:21:28.187Z,95.41
2017-07-07T06:22:28.195Z,95.98
2017-07-07T06:23:28.253Z,95.7
2017-07-07T06:24:28.288Z,96.66
2017-07-07T06:25:28.318Z,96.08
2017-07-07T06:26:28.354Z,96.37
2017-07-07T06:27:28.387Z,96.47
2017-07-07T06:28:28.421Z,96.75
2017-07-07T06:29:28.453Z,97.04
2017-07-07T06:30:28.492Z,97.33
2017-07-07T06:31:28.530Z,98.86
2017-07-07T06:32:28.535Z,97.76
2017-07-07T06:33:28.595Z,97.47
2017-07-07T06:34:28.633Z,97.86
2017-07-07T06:35:28.647Z,97.28
2017-07-07T06:36:28.699Z,96.99
2017-07-07T06:37:28.770Z,96.89
2017-07-07T06:38:28.748Z,96.61
2017-07-07T06:39:28.806Z,96.61
2017-07-07T06:40:28.840Z,96.18
2017-07-07T06:41:28.874Z,97.14
2017-07-07T06:42:28.914Z,96.27
2017-07-07T06:43:28.948Z,96.37
2017-07-07T06:44:28.970Z,96.27
2017-07-07T06:45:29.014Z,95.6
2017-07-07T06:46:29.059Z,95.5
2017-07-07T06:47:29.081Z,94.69
2017-07-07T06:48:29.120Z,95.65
2017-07-07T06:49:29.149Z,95.84
2017-07-07T06:50:29.241Z,96.03
2017-07-07T06:51:29.216Z,96.22
2017-07-07T06:52:29.249Z,96.03
2017-07-07T06:53:29.286Z,96.22
2017-07-07T06:54:29.320Z,96.51
2017-07-07T06:55:29.348Z,95.84
2017-07-07T06:56:29.473Z,96.32
2017-07-07T06:57:29.434Z,96.89
2017-07-07T06:58:29.434Z,96.13
2017-07-07T06:59:29.495Z,95.94
2017-07-07T07:00:29.536Z,96.13
2017-07-07T07:01:29.592Z,96.32
2017-07-07T07:02:29.585Z,97.19
2017-07-07T07:03:29.622Z,96.89
2017-07-07T07:04:29.641Z,96.61
2017-07-07T07:05:29.705Z,96.89
2017-07-07T07:06:29.742Z,96.8
2017-07-07T07:07:29.757Z,95.89
2017-07-07T07:08:29.794Z,96.47
2017-07-07T07:09:30.049Z,95.89
2017-07-07T07:10:29.872Z,95.89
2017-07-07T07:11:29.937Z,95.55
2017-07-07T07:12:30.097Z,95.45
2017-07-07T07:13:29.969Z,95.75
2017-07-07T07:14:30.232Z,95.94
2017-07-07T07:15:30.044Z,95.65
2017-07-07T07:16:30.091Z,95.55
2017-07-07T07:17:30.225Z,95.65
2017-07-07T07:18:30.169Z,95.26
2017-07-07T07:19:30.198Z,95.75
2017-07-07T07:20:30.230Z,95.6
2017-07-07T07:21:30.269Z,95.89
2017-07-07T07:22:30.304Z,96.56
2017-07-07T07:23:30.334Z,96.47
2017-07-07T07:24:30.368Z,96.37
2017-07-07T07:25:30.383Z,96.47
2017-07-07T07:26:30.445Z,96.85
2017-07-07T07:27:30.476Z,96.85
2017-07-07T07:28:30.496Z,96.17
2017-07-07T07:29:30.550Z,96.75
2017-07-07T07:30:30.578Z,96.94
2017-07-07T07:31:30.621Z,96.17
2017-07-07T07:32:30.639Z,95.98
2017-07-07T07:33:30.693Z,95.31
2017-07-07T07:34:30.733Z,95.79
2017-07-07T07:35:30.767Z,95.26
2017-07-07T07:36:30.794Z,94.78
2017-07-07T07:37:30.832Z,94.78
2017-07-07T07:38:30.873Z,94.21
2017-07-07T07:39:30.896Z,93.73
2017-07-07T07:40:30.940Z,94.25
2017-07-07T07:41:30.973Z,93.38
2017-07-07T07:42:31.006Z,93.19
2017-07-07T07:43:31.046Z,93.19
2017-07-07T07:44:31.079Z,93.48
2017-07-07T07:45:31.124Z,92.81
2017-07-07T07:46:31.147Z,92.91
2017-07-07T07:47:31.187Z,93.38
2017-07-07T07:48:31.217Z,93.38
2017-07-07T07:49:31.252Z,93.38
2017-07-07T07:50:31.276Z,94.06
2017-07-07T07:51:31.328Z,94.35
2017-07-07T07:52:31.357Z,94.35
2017-07-07T07:53:31.398Z,94.06
2017-07-07T07:54:31.435Z,95.02
2017-07-07T07:55:31.469Z,94.64
2017-07-07T07:56:31.507Z,95.21
2017-07-07T07:57:31.549Z,95.02
2017-07-07T07:58:31.559Z,94.73
2017-07-07T07:59:31.616Z,95.02
2017-07-07T08:00:31.649Z,94.83
2017-07-07T08:01:31.683Z,94.92
2017-07-07T08:02:31.722Z,95.6
2017-07-07T08:03:31.902Z,94.98
2017-07-07T08:04:31.787Z,94.98
2017-07-07T08:05:31.828Z,94.4
2017-07-07T08:06:31.838Z,94.78
2017-07-07T08:07:31.901Z,94.49
2017-07-07T08:08:32.091Z,94.21
2017-07-07T08:09:31.956Z,93.73
2017-07-07T08:10:32.009Z,93.91
2017-07-07T08:11:32.043Z,94.01
2017-07-07T08:12:32.076Z,94.01
2017-07-07T08:13:32.115Z,93.91
2017-07-07T08:14:32.148Z,94.01
2017-07-07T08:15:32.195Z,94.01
2017-07-07T08:16:32.219Z,94.21
2017-07-07T08:17:32.253Z,94.3
2017-07-07T08:18:32.278Z,94.68
2017-07-07T08:19:32.335Z,94.88
2017-07-07T08:20:32.352Z,94.88
2017-07-07T08:21:32.404Z,95.65
2017-07-07T08:22:32.446Z,94.78
2017-07-07T08:23:32.467Z,95.45
2017-07-07T08:24:32.512Z,95.75
2017-07-07T08:25:32.544Z,96.42
2017-07-07T08:26:32.576Z,96.51
2017-07-07T08:27:32.611Z,95.75
2017-07-07T08:28:32.650Z,95.55
2017-07-07T08:29:32.695Z,95.89
2017-07-07T08:30:32.717Z,95.79
2017-07-07T08:31:32.755Z,95.21
2017-07-07T08:32:32.790Z,95.5
2017-07-07T08:33:32.833Z,95.5
2017-07-07T08:34:32.851Z,95.98
2017-07-07T08:35:32.906Z,98.1
2017-07-07T08:36:32.940Z,97.52
2017-07-07T08:37:32.953Z,97.33
2017-07-07T08:38:33.006Z,96.75
2017-07-07T08:39:33.045Z,96.66
2017-07-07T08:40:33.081Z,96.75
2017-07-07T08:41:33.111Z,96.27
2017-07-07T08:42:33.138Z,96.47
2017-07-07T08:43:33.184Z,97.04
2017-07-07T08:44:33.220Z,96.37
2017-07-07T08:45:33.252Z,96.27
2017-07-07T08:46:33.289Z,97.14
2017-07-07T08:47:33.336Z,96.8
2017-07-07T08:48:33.347Z,96.22
2017-07-07T08:49:33.396Z,96.22
2017-07-07T08:50:33.439Z,96.32
2017-07-07T08:51:33.451Z,96.51
2017-07-07T08:52:33.501Z,96.9
2017-07-07T08:53:33.542Z,96.51
2017-07-07T08:54:33.578Z,96.8
2017-07-07T08:55:33.611Z,96.8
2017-07-07T08:56:33.649Z,97.28
2017-07-07T08:57:33.688Z,96.8
2017-07-07T08:58:33.741Z,97.57
2017-07-07T08:59:33.753Z,97.76
2017-07-07T09:00:33.786Z,97.09
2017-07-07T09:01:33.820Z,97.09
2017-07-07T09:02:33.840Z,96.51
2017-07-07T09:03:33.897Z,95.84
2017-07-07T09:04:33.935Z,95.84
2017-07-07T09:05:33.969Z,95.45
2017-07-07T09:06:34.006Z,95.55
2017-07-07T09:07:34.043Z,95.17
2017-07-07T09:08:34.060Z,95.02
2017-07-07T09:09:34.509Z,95.17
2017-07-07T09:10:34.151Z,94.54
2017-07-07T09:11:34.176Z,94.64
2017-07-07T09:12:34.217Z,95.21
2017-07-07T09:13:34.254Z,95.02
2017-07-07T09:14:34.440Z,94.83
2017-07-07T09:15:34.323Z,95.12
2017-07-07T09:16:34.347Z,95.79
2017-07-07T09:17:34.397Z,95.79
2017-07-07T09:18:34.435Z,95.7
2017-07-07T09:19:34.470Z,95.45
2017-07-07T09:20:34.487Z,94.68
2017-07-07T09:21:34.544Z,94.1
2017-07-07T09:22:34.577Z,93.67
2017-07-07T09:23:34.608Z,92.66
2017-07-07T09:24:34.654Z,91.55
2017-07-07T09:25:34.690Z,90.88
2017-07-07T09:26:34.716Z,89.28
2017-07-07T09:27:34.765Z,88.26
2017-07-07T09:28:34.794Z,87.05
2017-07-07T09:29:34.835Z,86.61
2017-07-07T09:30:34.842Z,85.55
2017-07-07T09:31:34.904Z,84.82
2017-07-07T09:32:34.943Z,83.89
2017-07-07T09:33:34.979Z,82.78
2017-07-07T09:34:35.016Z,82.29
2017-07-07T09:35:35.055Z,82.58
2017-07-07T09:36:35.086Z,82.78
2017-07-07T09:37:35.129Z,82.2
2017-07-07T09:38:35.143Z,82.1
2017-07-07T09:39:35.203Z,82.39
2017-07-07T09:40:35.244Z,81.9
2017-07-07T09:41:35.264Z,82.29
2017-07-07T09:42:35.316Z,81.71
2017-07-07T09:43:35.353Z,81.56
2017-07-07T09:44:35.388Z,81.85
2017-07-07T09:45:35.445Z,82.04
2017-07-07T09:46:35.445Z,81.85
2017-07-07T09:47:35.504Z,81.46
2017-07-07T09:48:35.544Z,81.71
2017-07-07T09:49:35.579Z,82.2
2017-07-07T09:50:35.614Z,82.2
2017-07-07T09:51:35.653Z,82.39
2017-07-07T09:52:35.691Z,82.54
2017-07-07T09:53:35.727Z,82.73
2017-07-07T09:54:35.763Z,82.83
2017-07-07T09:55:35.805Z,82.93
2017-07-07T09:56:35.845Z,82.73
2017-07-07T09:57:35.885Z,82.83
2017-07-07T09:58:35.899Z,83.06
2017-07-07T09:59:35.961Z,82.48
2017-07-07T10:00:35.990Z,82.39
2017-07-07T10:01:36.019Z,82.29
2017-07-07T10:02:36.064Z,81.75
2017-07-07T10:03:36.106Z,81.46
2017-07-07T10:04:36.148Z,80.63
2017-07-07T10:05:36.266Z,79.12
2017-07-07T10:06:36.220Z,78.42
2017-07-07T10:07:36.265Z,77.11
2017-07-07T10:08:36.303Z,75.1
2017-07-07T10:09:36.325Z,71.26
2017-07-07T10:10:36.379Z,69.36
2017-07-07T10:11:36.418Z,67.38
2017-07-07T10:12:36.458Z,64.61
2017-07-07T10:13:36.497Z,61.15
2017-07-07T10:14:36.539Z,56.52
2017-07-07T10:15:36.578Z,53.07
2017-07-07T10:16:36.621Z,50.54
2017-07-07T10:17:36.664Z,49.13
2017-07-07T10:18:36.708Z,48.06
2017-07-07T10:19:36.751Z,47.22
2017-07-07T10:20:36.788Z,45.85
2017-07-07T10:21:36.832Z,44.13
2017-07-07T10:22:36.872Z,43.78
2017-07-07T10:23:36.916Z,42.51
2017-07-07T10:24:36.960Z,42.33
2017-07-07T10:25:37.000Z,41.46
2017-07-07T10:26:37.052Z,41.28
2017-07-07T10:27:37.088Z,40.6
2017-07-07T10:28:37.129Z,40.1
2017-07-07T10:29:37.159Z,40.02
2017-07-07T10:30:37.228Z,39.04
2017-07-07T10:31:37.249Z,39.25
2017-07-07T10:32:37.312Z,39.34
2017-07-07T10:33:37.364Z,38.84
2017-07-07T10:34:37.406Z,39.23
2017-07-07T10:35:37.447Z,39.23
2017-07-07T10:36:37.491Z,39.32
2017-07-07T10:37:37.533Z,38.84
2017-07-07T10:38:37.584Z,38.54
2017-07-07T10:39:37.625Z,38.05
2017-07-07T10:40:37.656Z,38.17
2017-07-07T10:41:37.716Z,38.37
2017-07-07T10:42:37.759Z,38.46
2017-07-07T10:43:37.803Z,38.46
2017-07-07T10:44:37.844Z,38.09
2017-07-07T10:45:37.887Z,37.98
2017-07-07T10:46:37.936Z,38
2017-07-07T10:47:37.963Z,37.51
2017-07-07T10:48:38.023Z,37.6
2017-07-07T10:49:38.068Z,37.88
2017-07-07T10:50:38.108Z,37.38
2017-07-07T10:51:38.256Z,36.89
2017-07-07T10:52:38.194Z,37.01
2017-07-07T10:53:38.236Z,36.41
2017-07-07T10:54:38.264Z,36.89
2017-07-07T10:55:38.325Z,37.27
2017-07-07T10:56:38.501Z,37.67
2017-07-07T10:57:38.392Z,37.87
2017-07-07T10:58:38.453Z,37.19
2017-07-07T10:59:38.497Z,37.08
2017-07-07T11:00:38.537Z,37.49
2017-07-07T11:01:38.570Z,36.91
2017-07-07T11:02:38.621Z,36.72
2017-07-07T11:03:38.667Z,35.83
2017-07-07T11:04:38.703Z,35.03
2017-07-07T11:05:38.741Z,35.63
2017-07-07T11:06:38.801Z,35.63
2017-07-07T11:07:38.833Z,35.85
2017-07-07T11:08:38.867Z,35.94
2017-07-07T11:09:38.950Z,35.64
2017-07-07T11:10:38.965Z,35.76
2017-07-07T11:11:39.005Z,35.56
2017-07-07T11:12:39.039Z,35.85
2017-07-07T11:13:39.079Z,35.83
2017-07-07T11:14:39.124Z,35.85
2017-07-07T11:15:39.163Z,35.94
2017-07-07T11:16:39.202Z,35.44
2017-07-07T11:17:39.251Z,35.53
2017-07-07T11:18:39.285Z,35.42
2017-07-07T11:19:39.329Z,35.64
2017-07-07T11:20:39.372Z,35.74
2017-07-07T11:21:39.412Z,35.64
2017-07-07T11:22:39.435Z,35.74
2017-07-07T11:23:39.485Z,35.64
2017-07-07T11:24:39.534Z,35.85
2017-07-07T11:25:39.570Z,35.93
2017-07-07T11:26:39.613Z,35.83
2017-07-07T11:27:39.758Z,35.83
2017-07-07T11:28:39.692Z,36.22
2017-07-07T11:29:39.734Z,35.61
2017-07-07T11:30:39.771Z,36.11
2017-07-07T11:31:39.818Z,36.29
2017-07-07T11:32:40.000Z,36.09
2017-07-07T11:33:39.900Z,36.47
2017-07-07T11:34:39.949Z,37.25
2017-07-07T11:35:39.975Z,38.71
2017-07-07T11:36:40.019Z,40.8
2017-07-07T11:37:40.059Z,43.28
2017-07-07T11:38:40.096Z,45.92
2017-07-07T11:39:40.143Z,47.28
2017-07-07T11:40:40.155Z,49.46
2017-07-07T11:41:40.206Z,51.52
2017-07-07T11:42:40.264Z,53.59
2017-07-07T11:43:40.299Z,55.28
2017-07-07T11:44:40.321Z,56.89
2017-07-07T11:45:40.424Z,58.01
2017-07-07T11:46:40.421Z,59.7
2017-07-07T11:47:40.458Z,61.04
2017-07-07T11:48:40.501Z,61.89
2017-07-07T11:49:40.540Z,62.25
2017-07-07T11:50:40.566Z,62.99
2017-07-07T11:51:40.619Z,63.94
2017-07-07T11:52:40.671Z,64.69
2017-07-07T11:53:40.700Z,64.69
2017-07-07T11:54:40.736Z,65.43
2017-07-07T11:55:40.761Z,65.82
2017-07-07T11:56:40.823Z,66.02
2017-07-07T11:57:40.863Z,66.31
2017-07-07T11:58:40.900Z,66.86
2017-07-07T11:59:40.941Z,66.86
2017-07-07T12:00:40.979Z,66.96
2017-07-07T12:01:41.005Z,66.96
2017-07-07T12:02:41.063Z,67.44
2017-07-07T12:03:41.251Z,67.83
2017-07-07T12:04:41.135Z,67.93
2017-07-07T12:05:41.180Z,68.57
2017-07-07T12:06:41.218Z,68.28
2017-07-07T12:07:41.245Z,68.48
2017-07-07T12:08:41.294Z,68.67
2017-07-07T12:09:41.365Z,68.28
2017-07-07T12:10:41.359Z,68.67
2017-07-07T12:11:41.419Z,68.54
2017-07-07T12:12:41.451Z,68.96
2017-07-07T12:13:41.493Z,69.35
2017-07-07T12:14:41.531Z,69.35
2017-07-07T12:15:41.557Z,69.54
2017-07-07T12:16:41.614Z,69.54
2017-07-07T12:17:41.657Z,68.77
2017-07-07T12:18:41.705Z,69.54
2017-07-07T12:19:41.734Z,69.7
2017-07-07T12:20:41.774Z,69.32
2017-07-07T12:21:41.792Z,68.67
2017-07-07T12:22:41.850Z,68.67
2017-07-07T12:23:41.870Z,69.22
2017-07-07T12:24:41.920Z,68.77
2017-07-07T12:25:41.967Z,68.96
2017-07-07T12:26:42.000Z,69.74
2017-07-07T12:27:42.046Z,68.87
2017-07-07T12:28:42.079Z,69.15
2017-07-07T12:29:42.109Z,69.15
2017-07-07T12:30:42.164Z,69.35
2017-07-07T12:31:42.200Z,69.54
2017-07-07T12:32:42.233Z,69.25
2017-07-07T12:33:42.276Z,68.96
2017-07-07T12:34:42.318Z,68.77
2017-07-07T12:35:42.362Z,68.96
2017-07-07T12:36:42.399Z,68.67
2017-07-07T12:37:42.441Z,68.6
2017-07-07T12:38:42.472Z,67.93
2017-07-07T12:39:42.521Z,67.63
2017-07-07T12:40:42.564Z,67.28
2017-07-07T12:41:42.597Z,67.24
2017-07-07T12:42:42.640Z,67.28
2017-07-07T12:43:42.672Z,67.15
2017-07-07T12:44:42.715Z,67.63
2017-07-07T12:45:42.761Z,67.63
2017-07-07T12:46:42.767Z,67.73
2017-07-07T12:47:42.837Z,67.83
2017-07-07T12:48:42.875Z,67.54
2017-07-07T12:49:42.910Z,67.54
2017-07-07T12:50:43.104Z,68.02
2017-07-07T12:51:42.999Z,67.73
2017-07-07T12:52:43.024Z,68.32
2017-07-07T12:53:43.072Z,67.73
2017-07-07T12:54:43.108Z,67.93
2017-07-07T12:55:43.226Z,67.76
2017-07-07T12:56:43.172Z,67.44